Time;durP1;ratioP1;P1;durP2;ratioP2;P2;SDS_P1;SDS_P2;PMS_P1;PMS_P2;Temp;Humidity;BMP_temperature;BMP_pressure;BME280_temperature;BME280_humidity;BME280_pressure;Samples;Min_cycle;Max_cycle;Signal;HPM_P1;HPM_P2
2023/03/24 00:00:24;;;;;;;9.05;4.07;;;;;;;;;;1043804;28;20025;-74
2023/03/24 00:00:58;;;;;;;11.90;4.35;;;;;;;;;;1044323;28;20090;-74
2023/03/24 00:01:29;;;;;;;16.60;3.95;;;;;;;;;;1043584;28;20527;-74
2023/03/24 00:01:59;;;;;;;4.40;3.30;;;;;;;;;;1044021;28;20155;-74
2023/03/24 00:02:36;;;;;;;11.15;2.92;;;;;;;;;;1038682;28;20488;-74
2023/03/24 00:03:07;;;;;;;13.48;4.65;;;;;;;;;;1040693;28;20037;-74
2023/03/24 00:03:37;;;;;;;8.85;2.40;;;;;;;;;;1043698;28;20025;-74
2023/03/24 00:04:08;;;;;;;5.13;3.78;;;;;;;;;;1044074;28;20381;-74
2023/03/24 00:04:41;;;;;;;4.88;3.47;;;;;;;;;;1044016;28;20017;-75
2023/03/24 00:05:14;;;;;;;5.47;3.22;;;;;;;;;;1044029;28;20032;-74
2023/03/24 00:05:45;;;;;;;18.05;4.88;;;;;;;;;;1043411;28;20032;-74
2023/03/24 00:06:17;;;;;;;14.93;4.75;;;;;;;;;;1039742;28;20060;-74
2023/03/24 00:06:48;;;;;;;11.50;4.07;;;;;;;;;;1037532;28;20956;-75
2023/03/24 00:07:22;;;;;;;5.97;4.20;;;;;;;;;;1037249;28;20029;-74
2023/03/24 00:07:53;;;;;;;7.63;4.07;;;;;;;;;;1038640;28;20029;-74
2023/03/24 00:08:23;;;;;;;15.30;3.67;;;;;;;;;;1040191;28;20104;-75
2023/03/24 00:08:54;;;;;;;8.57;5.57;;;;;;;;;;1043983;28;20124;-74
2023/03/24 00:09:24;;;;;;;5.32;3.40;;;;;;;;;;1044136;28;20055;-74
2023/03/24 00:09:55;;;;;;;6.72;3.63;;;;;;;;;;1044287;28;20035;-75
2023/03/24 00:10:29;;;;;;;4.78;2.90;;;;;;;;;;1043467;28;20051;-74
2023/03/24 00:11:05;;;;;;;7.05;4.63;;;;;;;;;;1044274;28;20031;-75
2023/03/24 00:11:36;;;;;;;6.65;4.03;;;;;;;;;;1043618;28;20020;-75
2023/03/24 00:12:08;;;;;;;7.75;3.70;;;;;;;;;;1043925;28;20112;-75
2023/03/24 00:12:38;;;;;;;6.97;3.08;;;;;;;;;;1043692;28;20392;-75
2023/03/24 00:13:09;;;;;;;8.40;4.18;;;;;;;;;;1043970;28;20028;-74
2023/03/24 00:13:40;;;;;;;5.68;3.20;;;;;;;;;;1043712;28;20464;-75
2023/03/24 00:14:11;;;;;;;8.65;4.63;;;;;;;;;;1043734;28;20105;-74
2023/03/24 00:14:41;;;;;;;15.10;3.75;;;;;;;;;;1043970;28;20054;-75
2023/03/24 00:15:17;;;;;;;5.32;2.92;;;;;;;;;;1044229;28;20024;-75
2023/03/24 00:15:48;;;;;;;6.63;4.38;;;;;;;;;;1044119;28;20392;-74
2023/03/24 00:16:20;;;;;;;13.98;2.78;;;;;;;;;;1043782;28;20067;-74
2023/03/24 00:16:51;;;;;;;4.35;2.90;;;;;;;;;;1044101;28;20035;-75
2023/03/24 00:17:24;;;;;;;5.65;3.75;;;;;;;;;;1044585;28;20413;-75
2023/03/24 00:17:56;;;;;;;11.07;3.40;;;;;;;;;;1039425;28;20021;-74
2023/03/24 00:18:29;;;;;;;8.82;4.30;;;;;;;;;;1039363;28;20490;-74
2023/03/24 00:18:59;;;;;;;4.28;3.70;;;;;;;;;;1039968;28;20017;-74
2023/03/24 00:19:32;;;;;;;5.00;2.85;;;;;;;;;;1040020;28;20036;-75
2023/03/24 00:20:12;;;;;;;4.82;3.95;;;;;;;;;;1044003;28;20021;-75
2023/03/24 00:20:44;;;;;;;6.72;3.55;;;;;;;;;;1043843;28;20108;-74
2023/03/24 00:21:15;;;;;;;7.80;4.13;;;;;;;;;;1043931;28;20013;-74
2023/03/24 00:21:45;;;;;;;10.95;5.07;;;;;;;;;;1043915;28;20021;-75
2023/03/24 00:22:16;;;;;;;12.15;3.85;;;;;;;;;;1044169;28;20505;-75
2023/03/24 00:22:49;;;;;;;13.73;5.47;;;;;;;;;;1042908;28;20552;-75
2023/03/24 00:23:21;;;;;;;9.55;5.10;;;;;;;;;;1042980;28;20118;-74
2023/03/24 00:23:53;;;;;;;8.27;3.67;;;;;;;;;;1039604;28;20043;-75
2023/03/24 00:24:24;;;;;;;11.52;5.35;;;;;;;;;;1035455;28;20030;-74
2023/03/24 00:24:54;;;;;;;9.38;3.28;;;;;;;;;;1036170;28;20488;-75
2023/03/24 00:25:34;;;;;;;16.13;4.70;;;;;;;;;;1039555;28;20105;-75
2023/03/24 00:26:05;;;;;;;;;;;;;;;;;;1041600;28;20558;-74
2023/03/24 00:26:39;;;;;;;9.10;3.47;;;;;;;;;;1043606;28;19935;-75
2023/03/24 00:27:12;;;;;;;7.10;4.43;;;;;;;;;;1043862;28;20055;-74
2023/03/24 00:27:43;;;;;;;6.43;2.50;;;;;;;;;;1043477;28;20056;-75
2023/03/24 00:28:15;;;;;;;5.47;4.00;;;;;;;;;;1043538;28;20504;-75
2023/03/24 00:28:47;;;;;;;4.53;4.03;;;;;;;;;;1043626;28;20086;-75
2023/03/24 00:29:18;;;;;;;8.43;4.85;;;;;;;;;;1043857;28;20017;-74
2023/03/24 00:29:49;;;;;;;5.22;2.83;;;;;;;;;;1043654;28;20078;-74
2023/03/24 00:30:19;;;;;;;4.72;3.13;;;;;;;;;;1044122;28;20032;-74
2023/03/24 00:30:52;;;;;;;6.68;4.43;;;;;;;;;;1044083;28;20024;-75
2023/03/24 00:31:23;;;;;;;11.30;4.80;;;;;;;;;;1044131;28;20473;-75
2023/03/24 00:31:54;;;;;;;9.02;3.33;;;;;;;;;;1043983;28;20048;-75
2023/03/24 00:32:26;;;;;;;7.88;4.78;;;;;;;;;;1043751;28;20032;-75
2023/03/24 00:32:57;;;;;;;5.70;3.60;;;;;;;;;;1043811;28;20027;-75
2023/03/24 00:33:30;;;;;;;16.40;4.72;;;;;;;;;;1043894;28;20025;-75
2023/03/24 00:34:01;;;;;;;5.97;3.88;;;;;;;;;;1043874;28;20127;-75
2023/03/24 00:34:33;;;;;;;11.77;3.90;;;;;;;;;;1042382;28;20029;-75
2023/03/24 00:35:11;;;;;;;15.80;4.72;;;;;;;;;;1043379;28;20693;-74
2023/03/24 00:35:43;;;;;;;4.45;3.20;;;;;;;;;;1041524;28;20395;-75
2023/03/24 00:36:14;;;;;;;8.45;3.30;;;;;;;;;;1041714;28;20047;-75
2023/03/24 00:36:44;;;;;;;15.55;5.18;;;;;;;;;;1041205;28;20024;-74
2023/03/24 00:37:15;;;;;;;10.75;5.05;;;;;;;;;;1043451;28;20501;-74
2023/03/24 00:37:45;;;;;;;4.78;3.10;;;;;;;;;;1042831;28;20039;-74
2023/03/24 00:38:16;;;;;;;6.40;3.45;;;;;;;;;;1043499;28;20473;-75
2023/03/24 00:38:47;;;;;;;5.30;2.75;;;;;;;;;;1043553;28;20056;-74
2023/03/24 00:39:18;;;;;;;10.27;3.92;;;;;;;;;;1043006;28;20033;-74
2023/03/24 00:39:49;;;;;;;8.10;6.40;;;;;;;;;;1043426;28;20107;-74
2023/03/24 00:40:20;;;;;;;3.80;2.13;;;;;;;;;;1043037;28;20029;-74
2023/03/24 00:40:51;;;;;;;7.25;4.43;;;;;;;;;;1043790;28;20033;-74
2023/03/24 00:41:25;;;;;;;8.30;4.45;;;;;;;;;;1043526;28;21191;-74
2023/03/24 00:41:57;;;;;;;18.52;3.67;;;;;;;;;;1043483;28;20481;-74
2023/03/24 00:42:28;;;;;;;8.63;5.18;;;;;;;;;;1043339;28;20163;-75
2023/03/24 00:42:58;;;;;;;7.75;5.18;;;;;;;;;;1039656;28;20108;-74
2023/03/24 00:43:29;;;;;;;6.85;4.25;;;;;;;;;;1038864;28;20072;-74
2023/03/24 00:44:02;;;;;;;10.82;4.88;;;;;;;;;;1037767;28;20339;-74
2023/03/24 00:44:33;;;;;;;11.40;3.15;;;;;;;;;;1039497;28;20024;-75
2023/03/24 00:45:04;;;;;;;10.10;3.92;;;;;;;;;;1037056;28;20029;-74
2023/03/24 00:45:35;;;;;;;6.03;4.47;;;;;;;;;;1037654;28;20068;-74
2023/03/24 00:46:07;;;;;;;11.77;5.40;;;;;;;;;;1039329;28;20083;-74
2023/03/24 00:46:38;;;;;;;8.30;4.00;;;;;;;;;;1035532;28;20116;-75
2023/03/24 00:47:09;;;;;;;7.63;4.00;;;;;;;;;;1035727;28;20069;-75
2023/03/24 00:47:43;;;;;;;7.00;4.07;;;;;;;;;;1039351;28;20520;-74
2023/03/24 00:48:16;;;;;;;7.45;3.92;;;;;;;;;;1040335;28;20075;-74
2023/03/24 00:48:50;;;;;;;8.00;4.18;;;;;;;;;;1042717;28;20404;-75
2023/03/24 00:49:43;;;;;;;7.75;3.83;;;;;;;;;;1044001;28;20392;-75
2023/03/24 00:50:15;;;;;;;13.45;4.85;;;;;;;;;;1043647;28;20017;-75
2023/03/24 00:50:47;;;;;;;6.90;4.15;;;;;;;;;;1041083;28;20060;-75
2023/03/24 00:51:17;;;;;;;7.38;4.13;;;;;;;;;;1040982;28;20179;-75
2023/03/24 00:51:48;;;;;;;9.77;5.40;;;;;;;;;;1041590;28;20029;-75
2023/03/24 00:52:20;;;;;;;7.45;4.35;;;;;;;;;;1043686;28;20492;-75
2023/03/24 00:52:51;;;;;;;6.93;5.47;;;;;;;;;;1042948;28;20021;-74
2023/03/24 00:53:28;;;;;;;13.13;6.10;;;;;;;;;;1043782;28;20445;-74
2023/03/24 00:53:58;;;;;;;6.20;4.18;;;;;;;;;;1043864;28;20021;-74
2023/03/24 00:54:29;;;;;;;23.60;4.60;;;;;;;;;;1043298;28;20553;-75
2023/03/24 00:55:01;;;;;;;6.53;3.13;;;;;;;;;;1043585;28;20029;-75
2023/03/24 00:55:32;;;;;;;4.93;3.97;;;;;;;;;;1042126;28;20393;-74
2023/03/24 00:56:03;;;;;;;5.75;5.13;;;;;;;;;;1043460;28;20056;-74
2023/03/24 00:56:34;;;;;;;17.65;6.40;;;;;;;;;;1043454;28;20040;-74
2023/03/24 00:57:05;;;;;;;9.63;4.65;;;;;;;;;;1043993;28;20068;-74
2023/03/24 00:57:36;;;;;;;15.52;6.72;;;;;;;;;;1043739;28;20020;-74
2023/03/24 00:58:06;;;;;;;8.15;5.00;;;;;;;;;;1043431;28;20024;-74
2023/03/24 00:58:36;;;;;;;24.92;7.00;;;;;;;;;;1043710;28;20052;-75
2023/03/24 00:59:08;;;;;;;15.70;4.88;;;;;;;;;;1043628;28;20045;-74
2023/03/24 00:59:41;;;;;;;31.98;5.70;;;;;;;;;;1043531;28;20384;-74
2023/03/24 01:00:15;;;;;;;14.07;5.38;;;;;;;;;;1043267;28;20501;-74
2023/03/24 01:00:47;;;;;;;21.42;5.18;;;;;;;;;;1038998;28;20037;-74
2023/03/24 01:01:20;;;;;;;6.00;4.18;;;;;;;;;;1038594;28;20017;-75
2023/03/24 01:01:51;;;;;;;16.17;6.65;;;;;;;;;;1040386;28;20033;-74
2023/03/24 01:02:23;;;;;;;10.07;6.47;;;;;;;;;;1043526;28;20119;-75
2023/03/24 01:02:55;;;;;;;10.38;6.88;;;;;;;;;;1043273;28;20024;-74
2023/03/24 01:03:28;;;;;;;16.67;6.03;;;;;;;;;;1043289;28;20067;-74
2023/03/24 01:03:59;;;;;;;21.38;9.52;;;;;;;;;;1043475;28;20060;-75
2023/03/24 01:04:29;;;;;;;25.55;12.98;;;;;;;;;;1042846;28;20027;-74
2023/03/24 01:05:01;;;;;;;20.83;11.88;;;;;;;;;;1043134;28;20603;-75
2023/03/24 01:05:31;;;;;;;20.30;10.02;;;;;;;;;;1042165;28;20440;-75
2023/03/24 01:06:03;;;;;;;29.75;11.80;;;;;;;;;;1042462;28;20025;-75
2023/03/24 01:06:37;;;;;;;26.33;14.00;;;;;;;;;;1038490;28;20041;-74
2023/03/24 01:07:10;;;;;;;13.95;8.02;;;;;;;;;;1039217;28;20037;-74
2023/03/24 01:07:43;;;;;;;25.02;11.77;;;;;;;;;;1036153;28;20021;-74
2023/03/24 01:08:14;;;;;;;17.05;8.45;;;;;;;;;;1040555;28;20032;-74
2023/03/24 01:08:44;;;;;;;18.58;11.23;;;;;;;;;;1038987;28;20025;-74
2023/03/24 01:09:15;;;;;;;24.08;11.73;;;;;;;;;;1039292;28;20021;-74
2023/03/24 01:09:50;;;;;;;17.45;10.52;;;;;;;;;;1042825;28;20086;-74
2023/03/24 01:10:25;;;;;;;23.38;9.27;;;;;;;;;;1042950;28;20099;-74
2023/03/24 01:10:56;;;;;;;17.33;10.02;;;;;;;;;;1043415;28;20027;-74
2023/03/24 01:11:27;;;;;;;19.17;9.10;;;;;;;;;;1043522;28;20100;-74
2023/03/24 01:11:57;;;;;;;15.45;10.43;;;;;;;;;;1043497;28;20025;-74
2023/03/24 01:12:33;;;;;;;21.58;9.82;;;;;;;;;;1038504;28;20476;-75
2023/03/24 01:13:04;;;;;;;27.10;11.10;;;;;;;;;;1039412;28;20146;-74
2023/03/24 01:13:34;;;;;;;21.23;9.25;;;;;;;;;;1039871;28;20036;-74
2023/03/24 01:14:05;;;;;;;12.77;6.20;;;;;;;;;;1038340;28;20456;-74
2023/03/24 01:14:36;;;;;;;24.15;8.73;;;;;;;;;;1042111;28;20420;-74
2023/03/24 01:15:08;;;;;;;20.67;7.43;;;;;;;;;;1041073;28;20048;-74
2023/03/24 01:15:39;;;;;;;18.02;8.38;;;;;;;;;;1041941;28;20025;-74
2023/03/24 01:16:09;;;;;;;21.50;8.35;;;;;;;;;;1042880;28;20053;-74
2023/03/24 01:16:40;;;;;;;24.33;12.32;;;;;;;;;;1043253;28;20130;-74
2023/03/24 01:17:11;;;;;;;28.10;10.82;;;;;;;;;;1043034;28;20029;-74
2023/03/24 01:17:42;;;;;;;32.80;8.70;;;;;;;;;;1043326;28;20408;-74
2023/03/24 01:18:13;;;;;;;31.60;13.32;;;;;;;;;;1043558;28;20020;-74
2023/03/24 01:18:44;;;;;;;24.60;11.10;;;;;;;;;;1043384;28;20024;-75
2023/03/24 01:19:15;;;;;;;34.67;9.48;;;;;;;;;;1042957;28;20032;-74
2023/03/24 01:19:45;;;;;;;16.08;10.85;;;;;;;;;;1042633;28;20558;-75
2023/03/24 01:20:16;;;;;;;22.70;10.90;;;;;;;;;;1041565;28;20048;-74
2023/03/24 01:20:48;;;;;;;22.45;13.10;;;;;;;;;;1040718;28;20029;-74
2023/03/24 01:21:18;;;;;;;16.58;10.30;;;;;;;;;;1040421;28;20100;-74
2023/03/24 01:21:49;;;;;;;21.65;10.48;;;;;;;;;;1038316;28;20408;-74
2023/03/24 01:22:20;;;;;;;22.58;11.20;;;;;;;;;;1038357;28;20130;-74
2023/03/24 01:22:51;;;;;;;33.80;10.80;;;;;;;;;;1035607;28;20106;-74
2023/03/24 01:23:22;;;;;;;24.85;12.38;;;;;;;;;;1035961;28;20400;-74
2023/03/24 01:23:53;;;;;;;16.70;10.20;;;;;;;;;;1042509;28;20024;-74
2023/03/24 01:24:24;;;;;;;16.52;8.73;;;;;;;;;;1040702;28;20274;-75
2023/03/24 01:24:54;;;;;;;12.65;7.50;;;;;;;;;;1042797;28;20492;-75
2023/03/24 01:25:26;;;;;;;20.67;10.02;;;;;;;;;;1039811;28;20517;-74
2023/03/24 01:25:56;;;;;;;15.50;5.78;;;;;;;;;;1040264;28;20033;-74
2023/03/24 01:26:27;;;;;;;15.07;6.68;;;;;;;;;;1041382;28;20033;-74
2023/03/24 01:26:58;;;;;;;9.98;5.97;;;;;;;;;;1040909;28;20580;-75
2023/03/24 01:27:28;;;;;;;10.77;6.00;;;;;;;;;;1039018;28;20025;-75
2023/03/24 01:27:59;;;;;;;11.68;7.00;;;;;;;;;;1041662;28;20191;-74
2023/03/24 01:28:29;;;;;;;21.48;6.78;;;;;;;;;;1040368;28;20096;-74
2023/03/24 01:29:00;;;;;;;11.13;7.30;;;;;;;;;;1038544;28;20123;-74
2023/03/24 01:29:30;;;;;;;22.08;9.07;;;;;;;;;;1035522;28;20206;-74
2023/03/24 01:30:01;;;;;;;19.10;7.90;;;;;;;;;;1035903;28;20106;-75
2023/03/24 01:30:31;;;;;;;13.88;5.00;;;;;;;;;;1034882;28;20592;-75
2023/03/24 01:31:02;;;;;;;23.45;6.45;;;;;;;;;;1039702;28;20517;-74
2023/03/24 01:31:32;;;;;;;11.38;4.47;;;;;;;;;;1040658;28;20115;-74
2023/03/24 01:32:03;;;;;;;16.08;6.78;;;;;;;;;;1041225;28;20024;-74
2023/03/24 01:32:33;;;;;;;11.88;6.15;;;;;;;;;;1041049;28;20025;-74
2023/03/24 01:33:04;;;;;;;11.00;5.93;;;;;;;;;;1041402;28;20131;-74
2023/03/24 01:33:35;;;;;;;13.80;6.13;;;;;;;;;;1038931;28;20388;-74
2023/03/24 01:34:06;;;;;;;11.88;5.75;;;;;;;;;;1039277;28;20092;-75
2023/03/24 01:34:36;;;;;;;17.48;7.68;;;;;;;;;;1040025;28;20560;-74
2023/03/24 01:35:07;;;;;;;13.10;6.45;;;;;;;;;;1037317;28;20030;-74
2023/03/24 01:35:37;;;;;;;15.00;7.78;;;;;;;;;;1037364;28;20029;-74
2023/03/24 01:36:08;;;;;;;15.77;5.15;;;;;;;;;;1037636;28;20193;-75
2023/03/24 01:36:39;;;;;;;14.30;7.13;;;;;;;;;;1033353;28;20422;-74
2023/03/24 01:37:10;;;;;;;16.23;8.90;;;;;;;;;;1037427;28;20091;-74
2023/03/24 01:37:41;;;;;;;12.73;8.32;;;;;;;;;;1037473;28;20065;-74
2023/03/24 01:38:12;;;;;;;11.88;6.65;;;;;;;;;;1037518;28;20029;-74
2023/03/24 01:38:42;;;;;;;13.57;7.45;;;;;;;;;;1038228;28;20033;-76
2023/03/24 01:39:13;;;;;;;12.02;5.88;;;;;;;;;;1033200;28;20536;-74
2023/03/24 01:39:43;;;;;;;19.73;10.07;;;;;;;;;;1036262;28;20022;-73
2023/03/24 01:40:19;;;;;;;12.05;6.28;;;;;;;;;;1036621;28;20509;-74
2023/03/24 01:40:51;;;;;;;18.77;5.20;;;;;;;;;;1040254;28;20099;-74
2023/03/24 01:41:21;;;;;;;9.55;4.70;;;;;;;;;;1041681;28;20040;-74
2023/03/24 01:41:52;;;;;;;14.00;7.70;;;;;;;;;;1042898;28;20127;-74
2023/03/24 01:42:24;;;;;;;23.23;8.90;;;;;;;;;;1040607;28;20031;-75
2023/03/24 01:42:56;;;;;;;17.13;7.05;;;;;;;;;;1042044;28;20025;-75
2023/03/24 01:43:32;;;;;;;5.32;3.85;;;;;;;;;;1036517;28;20026;-74
2023/03/24 01:44:22;;;;;;;19.13;6.68;;;;;;;;;;1038545;28;20566;-76
2023/03/24 01:44:56;;;;;;;24.33;5.18;;;;;;;;;;1036768;28;20115;-76
2023/03/24 01:45:35;;;;;;;16.10;6.72;;;;;;;;;;1039424;28;20033;-74
2023/03/24 01:46:19;;;;;;;25.50;7.70;;;;;;;;;;1039283;28;20075;-74
2023/03/24 01:46:50;;;;;;;15.77;7.35;;;;;;;;;;1041049;28;20017;-74
2023/03/24 01:47:20;;;;;;;16.52;6.43;;;;;;;;;;1039588;28;20029;-77
2023/03/24 01:47:51;;;;;;;15.15;6.78;;;;;;;;;;1041640;28;20492;-74
2023/03/24 01:48:34;;;;;;;15.15;6.65;;;;;;;;;;1041473;28;20497;-75
2023/03/24 01:49:06;;;;;;;17.58;7.35;;;;;;;;;;1041906;28;20035;-74
2023/03/24 01:49:46;;;;;;;14.32;6.00;;;;;;;;;;1042341;28;20448;-75
2023/03/24 01:50:17;;;;;;;15.98;7.95;;;;;;;;;;1042052;28;20535;-74
2023/03/24 01:50:57;;;;;;;15.40;7.82;;;;;;;;;;1042406;28;20078;-76
2023/03/24 01:51:29;;;;;;;18.35;10.25;;;;;;;;;;1041200;28;20055;-74
2023/03/24 01:52:01;;;;;;;20.17;8.73;;;;;;;;;;1042278;28;20036;-74
2023/03/24 01:52:34;;;;;;;24.52;9.18;;;;;;;;;;1041518;28;20099;-75
2023/03/24 01:53:05;;;;;;;22.92;9.20;;;;;;;;;;1042539;28;20147;-74
2023/03/24 01:53:37;;;;;;;24.52;10.60;;;;;;;;;;1041553;28;20174;-76
2023/03/24 01:54:12;;;;;;;12.05;6.40;;;;;;;;;;1042663;28;20017;-76
2023/03/24 01:54:48;;;;;;;29.45;11.50;;;;;;;;;;1042321;28;20051;-76
2023/03/24 01:55:18;;;;;;;21.92;9.43;;;;;;;;;;1042450;28;20067;-75
2023/03/24 01:55:49;;;;;;;19.02;7.30;;;;;;;;;;1040267;28;20036;-74
2023/03/24 01:56:20;;;;;;;10.80;6.85;;;;;;;;;;1034064;28;20076;-75
2023/03/24 01:56:54;;;;;;;17.00;8.10;;;;;;;;;;1035484;28;20416;-75
2023/03/24 01:57:32;;;;;;;24.17;7.88;;;;;;;;;;1037687;28;20034;-75
2023/03/24 01:58:03;;;;;;;34.03;7.47;;;;;;;;;;1037772;28;20174;-75
2023/03/24 01:58:35;;;;;;;15.25;8.07;;;;;;;;;;1038304;28;20017;-76
2023/03/24 01:59:09;;;;;;;16.60;7.95;;;;;;;;;;1039540;28;20025;-76
2023/03/24 01:59:41;;;;;;;12.00;6.32;;;;;;;;;;1037672;28;20088;-75
2023/03/24 02:00:13;;;;;;;24.38;8.40;;;;;;;;;;1038632;28;20156;-73
2023/03/24 02:00:44;;;;;;;19.67;8.13;;;;;;;;;;1038161;28;20032;-74
2023/03/24 02:01:16;;;;;;;18.35;8.30;;;;;;;;;;1037575;28;20124;-74
2023/03/24 02:01:48;;;;;;;28.80;7.32;;;;;;;;;;1036946;28;20199;-76
2023/03/24 02:02:20;;;;;;;13.05;5.90;;;;;;;;;;1042228;28;20028;-76
2023/03/24 02:02:57;;;;;;;13.55;7.32;;;;;;;;;;1041841;28;20059;-74
2023/03/24 02:03:32;;;;;;;26.67;9.02;;;;;;;;;;1042306;28;20516;-73
2023/03/24 02:04:05;;;;;;;38.10;8.30;;;;;;;;;;1041628;28;20556;-74
2023/03/24 02:04:37;;;;;;;14.25;5.82;;;;;;;;;;1041454;28;20082;-74
2023/03/24 02:05:09;;;;;;;15.13;8.15;;;;;;;;;;1043990;28;20508;-74
2023/03/24 02:05:40;;;;;;;21.33;8.25;;;;;;;;;;1041045;28;20064;-73
2023/03/24 02:06:12;;;;;;;14.82;6.68;;;;;;;;;;1041877;28;20406;-74
2023/03/24 02:06:43;;;;;;;34.90;10.05;;;;;;;;;;1042830;28;20021;-73
2023/03/24 02:07:35;;;;;;;7.47;5.18;;;;;;;;;;1041056;28;20028;-73
2023/03/24 02:08:24;;;;;;;15.55;7.28;;;;;;;;;;1040666;28;20021;-74
2023/03/24 02:08:56;;;;;;;17.70;6.60;;;;;;;;;;1040058;28;20477;-73
2023/03/24 02:09:26;;;;;;;13.20;6.47;;;;;;;;;;1041686;28;20408;-74
2023/03/24 02:09:57;;;;;;;8.60;6.00;;;;;;;;;;1039787;28;20032;-74
2023/03/24 02:10:30;;;;;;;20.02;8.70;;;;;;;;;;1039448;28;20408;-74
2023/03/24 02:11:01;;;;;;;17.95;7.13;;;;;;;;;;1037761;28;20020;-74
2023/03/24 02:11:32;;;;;;;19.15;6.65;;;;;;;;;;1039026;28;20021;-75
2023/03/24 02:12:03;;;;;;;21.27;4.60;;;;;;;;;;1036740;28;20465;-74
2023/03/24 02:12:33;;;;;;;21.48;6.68;;;;;;;;;;1033879;28;20076;-74
2023/03/24 02:13:05;;;;;;;16.25;7.47;;;;;;;;;;1039111;28;20061;-74
2023/03/24 02:13:35;;;;;;;30.85;7.78;;;;;;;;;;1036436;28;20029;-73
2023/03/24 02:14:06;;;;;;;12.77;6.32;;;;;;;;;;1041784;28;20568;-73
2023/03/24 02:14:37;;;;;;;29.50;9.02;;;;;;;;;;1040635;28;20024;-73
2023/03/24 02:15:08;;;;;;;30.23;7.28;;;;;;;;;;1042204;28;20028;-75
2023/03/24 02:15:52;;;;;;;26.80;8.82;;;;;;;;;;1042183;28;20025;-74
2023/03/24 02:16:22;;;;;;;20.40;7.85;;;;;;;;;;1042670;28;20563;-77
2023/03/24 02:17:13;;;;;;;20.05;9.15;;;;;;;;;;1041317;28;20131;-76
2023/03/24 02:17:55;;;;;;;13.43;6.68;;;;;;;;;;1040562;28;20032;-75
2023/03/24 02:18:55;;;;;;;11.13;5.53;;;;;;;;;;1036429;28;20121;-74
2023/03/24 02:19:36;;;;;;;18.58;5.20;;;;;;;;;;1026517;28;20101;-74
2023/03/24 02:20:11;;;;;;;24.83;8.07;;;;;;;;;;1039672;28;20069;-76
2023/03/24 02:20:57;;;;;;;18.85;6.45;;;;;;;;;;1036896;28;20024;-73
2023/03/24 02:21:46;;;;;;;27.45;7.10;;;;;;;;;;1036760;28;20144;-74
2023/03/24 02:22:34;;;;;;;24.42;10.52;;;;;;;;;;1042264;28;20031;-73
2023/03/24 02:23:17;;;;;;;22.17;6.85;;;;;;;;;;1043340;28;20021;-73
2023/03/24 02:24:06;;;;;;;15.48;6.68;;;;;;;;;;1046079;28;20109;-73
2023/03/24 02:24:55;;;;;;;30.17;5.57;;;;;;;;;;1045456;28;20032;-73
2023/03/24 02:25:38;;;;;;;19.45;8.13;;;;;;;;;;1041463;28;20102;-74
2023/03/24 02:26:21;;;;;;;12.93;6.93;;;;;;;;;;1042780;28;20021;-74
2023/03/24 02:27:03;;;;;;;11.13;4.20;;;;;;;;;;1039165;28;20048;-74
2023/03/24 02:27:37;;;;;;;13.98;9.85;;;;;;;;;;1038918;28;20033;-74
2023/03/24 02:28:08;;;;;;;11.20;7.82;;;;;;;;;;1040659;28;20528;-74
2023/03/24 02:28:38;;;;;;;9.48;6.70;;;;;;;;;;1036034;28;20029;-75
2023/03/24 02:29:24;;;;;;;14.23;9.02;;;;;;;;;;1033212;28;20017;-74
2023/03/24 02:30:06;;;;;;;14.07;6.75;;;;;;;;;;1039691;28;20076;-76
2023/03/24 02:30:56;;;;;;;43.28;8.65;;;;;;;;;;1042533;28;20064;-74
2023/03/24 02:31:34;;;;;;;17.90;8.00;;;;;;;;;;1047634;28;20111;-75
2023/03/24 02:32:23;;;;;;;12.68;5.32;;;;;;;;;;1042182;28;20384;-75
2023/03/24 02:32:57;;;;;;;18.13;8.00;;;;;;;;;;1041763;28;20029;-75
2023/03/24 02:33:46;;;;;;;15.73;7.43;;;;;;;;;;1036918;28;20522;-75
2023/03/24 02:34:16;;;;;;;24.38;6.45;;;;;;;;;;1040486;28;20547;-75
2023/03/24 02:34:58;;;;;;;23.23;6.28;;;;;;;;;;1040904;28;20147;-76
2023/03/24 02:35:37;;;;;;;18.88;7.32;;;;;;;;;;1034381;28;20490;-75
2023/03/24 02:36:20;;;;;;;11.50;6.18;;;;;;;;;;1040013;28;20037;-76
2023/03/24 02:36:57;;;;;;;15.98;6.15;;;;;;;;;;1039457;28;20025;-75
2023/03/24 02:37:46;;;;;;;13.90;7.43;;;;;;;;;;1039389;28;20116;-76
2023/03/24 02:38:40;;;;;;;8.63;3.53;;;;;;;;;;1036695;28;22081;-76
2023/03/24 02:39:29;;;;;;;21.08;7.22;;;;;;;;;;1026970;28;20279;-75
2023/03/24 02:40:18;;;;;;;13.93;7.45;;;;;;;;;;1039130;28;20657;-75
2023/03/24 02:40:54;;;;;;;25.83;8.77;;;;;;;;;;1041884;28;20028;-75
2023/03/24 02:41:28;;;;;;;16.70;6.70;;;;;;;;;;1042139;28;20072;-75
2023/03/24 02:42:17;;;;;;;29.98;8.10;;;;;;;;;;1041848;28;20029;-75
2023/03/24 02:43:06;;;;;;;14.63;6.40;;;;;;;;;;1040456;28;20025;-76
2023/03/24 02:43:54;;;;;;;16.77;7.05;;;;;;;;;;1038073;28;20280;-75
2023/03/24 02:44:29;;;;;;;14.25;5.00;;;;;;;;;;1042262;28;20481;-74
2023/03/24 02:45:00;;;;;;;11.30;5.78;;;;;;;;;;1042246;28;20482;-75
2023/03/24 02:45:35;;;;;;;9.57;5.35;;;;;;;;;;1039980;28;20087;-75
2023/03/24 02:46:26;;;;;;;8.48;6.03;;;;;;;;;;1042551;28;20020;-75
2023/03/24 02:46:59;;;;;;;12.77;5.20;;;;;;;;;;1041402;28;20082;-75
2023/03/24 02:47:30;;;;;;;39.72;7.00;;;;;;;;;;1042032;28;20468;-75
2023/03/24 02:48:00;;;;;;;8.70;5.18;;;;;;;;;;1041312;28;20919;-74
2023/03/24 02:48:31;;;;;;;19.83;6.88;;;;;;;;;;1040426;28;20041;-75
2023/03/24 02:49:13;;;;;;;9.40;6.07;;;;;;;;;;1042285;28;20489;-75
2023/03/24 02:49:44;;;;;;;21.80;7.05;;;;;;;;;;1041973;28;20021;-75
2023/03/24 02:50:26;;;;;;;6.20;3.42;;;;;;;;;;1039005;28;20030;-75
2023/03/24 02:51:15;;;;;;;17.40;7.47;;;;;;;;;;1040608;28;20067;-75
2023/03/24 02:51:51;;;;;;;9.88;5.03;;;;;;;;;;1039964;28;20029;-76
2023/03/24 02:52:28;;;;;;;15.20;6.20;;;;;;;;;;1041325;28;20037;-75
2023/03/24 02:53:07;;;;;;;11.45;5.65;;;;;;;;;;1036629;28;20560;-75
2023/03/24 02:53:56;;;;;;;12.30;5.00;;;;;;;;;;1040739;28;20032;-75
2023/03/24 02:54:32;;;;;;;18.77;8.68;;;;;;;;;;1040019;28;20559;-76
2023/03/24 02:55:10;;;;;;;18.95;5.10;;;;;;;;;;1042714;28;20033;-74
2023/03/24 02:55:52;;;;;;;9.57;5.30;;;;;;;;;;1042014;28;20548;-74
2023/03/24 02:56:29;;;;;;;14.50;3.97;;;;;;;;;;1041258;28;20112;-74
2023/03/24 02:57:02;;;;;;;9.23;5.40;;;;;;;;;;1041339;28;20037;-74
2023/03/24 02:57:38;;;;;;;12.82;5.28;;;;;;;;;;1042126;28;20086;-74
2023/03/24 02:58:16;;;;;;;13.65;4.53;;;;;;;;;;1040562;28;20051;-73
2023/03/24 02:59:02;;;;;;;12.38;5.57;;;;;;;;;;1039316;28;20060;-73
2023/03/24 02:59:40;;;;;;;7.85;4.45;;;;;;;;;;1039806;28;20029;-74
2023/03/24 03:00:18;;;;;;;11.73;6.07;;;;;;;;;;1039969;28;20035;-74
2023/03/24 03:00:58;;;;;;;12.63;6.78;;;;;;;;;;1038949;28;20206;-74
2023/03/24 03:01:31;;;;;;;20.85;5.53;;;;;;;;;;1039575;28;20098;-74
2023/03/24 03:02:05;;;;;;;17.80;7.03;;;;;;;;;;1040456;28;20103;-75
2023/03/24 03:02:38;;;;;;;14.85;6.10;;;;;;;;;;1037473;28;20057;-74
2023/03/24 03:03:11;;;;;;;10.02;4.68;;;;;;;;;;1037694;28;20491;-74
2023/03/24 03:03:49;;;;;;;7.30;5.70;;;;;;;;;;1036084;28;20045;-74
2023/03/24 03:04:23;;;;;;;8.98;3.97;;;;;;;;;;1040637;28;20344;-73
2023/03/24 03:04:56;;;;;;;12.57;5.53;;;;;;;;;;1038268;28;20025;-74
2023/03/24 03:05:31;;;;;;;10.27;3.78;;;;;;;;;;1039553;28;20025;-74
2023/03/24 03:06:08;;;;;;;14.63;4.50;;;;;;;;;;1040109;28;20029;-73
2023/03/24 03:06:39;;;;;;;14.07;3.80;;;;;;;;;;1040000;28;20090;-74
2023/03/24 03:07:11;;;;;;;10.07;3.85;;;;;;;;;;1039374;28;20021;-74
2023/03/24 03:07:43;;;;;;;11.23;4.30;;;;;;;;;;1039308;28;20135;-74
2023/03/24 03:08:16;;;;;;;6.75;4.90;;;;;;;;;;1037308;28;20432;-74
2023/03/24 03:08:47;;;;;;;17.88;7.30;;;;;;;;;;1037772;28;20044;-74
2023/03/24 03:09:21;;;;;;;26.38;7.28;;;;;;;;;;1038469;28;20508;-75
2023/03/24 03:10:02;;;;;;;23.98;9.68;;;;;;;;;;1035325;28;20567;-73
2023/03/24 03:10:35;;;;;;;27.10;9.38;;;;;;;;;;1037751;28;20033;-74
2023/03/24 03:11:07;;;;;;;76.50;11.93;;;;;;;;;;1040984;28;20144;-76
2023/03/24 03:11:39;;;;;;;38.53;8.05;;;;;;;;;;1039314;28;20051;-75
2023/03/24 03:12:11;;;;;;;66.90;10.20;;;;;;;;;;1040017;28;20033;-75
2023/03/24 03:12:43;;;;;;;10.98;5.97;;;;;;;;;;1039320;28;20396;-74
2023/03/24 03:13:34;;;;;;;20.85;6.30;;;;;;;;;;1040346;28;20032;-75
2023/03/24 03:14:08;;;;;;;13.13;3.67;;;;;;;;;;1027405;28;20054;-75
2023/03/24 03:14:40;;;;;;;16.48;5.45;;;;;;;;;;1041250;28;20017;-75
2023/03/24 03:15:14;;;;;;;8.70;5.00;;;;;;;;;;1040763;28;20030;-74
2023/03/24 03:15:47;;;;;;;71.47;7.72;;;;;;;;;;1035251;28;20072;-75
2023/03/24 03:16:24;;;;;;;11.02;6.43;;;;;;;;;;1039397;28;20040;-75
2023/03/24 03:17:03;;;;;;;16.55;4.68;;;;;;;;;;1040130;28;20759;-75
2023/03/24 03:17:37;;;;;;;24.40;3.85;;;;;;;;;;1040606;28;20084;-75
2023/03/24 03:18:10;;;;;;;13.88;4.28;;;;;;;;;;1038239;28;20029;-75
2023/03/24 03:18:45;;;;;;;26.65;7.75;;;;;;;;;;1039971;28;20509;-76
2023/03/24 03:19:18;;;;;;;35.03;6.80;;;;;;;;;;1038178;28;20063;-75
2023/03/24 03:19:52;;;;;;;10.50;4.28;;;;;;;;;;1039028;28;20119;-75
2023/03/24 03:20:23;;;;;;;13.55;4.57;;;;;;;;;;1038530;28;20131;-75
2023/03/24 03:20:57;;;;;;;14.07;4.10;;;;;;;;;;1039738;28;20032;-75
2023/03/24 03:21:32;;;;;;;17.65;5.13;;;;;;;;;;1039668;28;20032;-75
2023/03/24 03:22:05;;;;;;;20.70;5.90;;;;;;;;;;1039731;28;20067;-75